Time;durP1;ratioP1;P1;durP2;ratioP2;P2;SDS_P1;SDS_P2;PMS_P1;PMS_P2;Temp;Humidity;BMP_temperature;BMP_pressure;BME280_temperature;BME280_humidity;BME280_pressure;Samples;Min_cycle;Max_cycle;Signal;HPM_P1;HPM_P2
2022/11/01 00:00:34;;;;;;;50.33;26.13;;;;;;;15.39;87.73;100985.28;5025914;28;20049;-71
2022/11/01 00:03:00;;;;;;;49.28;25.75;;;;;;;15.48;88.27;100984.66;5031360;28;20067;-71
2022/11/01 00:05:28;;;;;;;48.38;25.83;;;;;;;15.45;87.77;100984.00;5044999;28;20045;-71
2022/11/01 00:07:54;;;;;;;60.25;27.27;;;;;;;15.53;87.21;100979.94;5045998;28;20048;-71
2022/11/01 00:10:21;;;;;;;51.83;25.20;;;;;;;15.61;86.85;100982.06;5046598;28;20076;-71
2022/11/01 00:12:47;;;;;;;45.58;25.17;;;;;;;15.00;88.60;100986.16;5045628;28;20045;-71
2022/11/01 00:15:14;;;;;;;43.10;22.90;;;;;;;15.18;88.01;100981.47;5046816;28;20045;-71
2022/11/01 00:17:40;;;;;;;42.08;22.52;;;;;;;15.04;87.12;100976.22;5044967;28;20072;-71
2022/11/01 00:20:07;;;;;;;43.72;22.65;;;;;;;15.11;86.89;100973.06;5045474;28;20048;-71
2022/11/01 00:22:35;;;;;;;39.53;22.65;;;;;;;14.98;86.45;100974.00;5046329;28;20072;-71
2022/11/01 00:25:02;;;;;;;37.65;20.90;;;;;;;14.80;86.19;100981.34;5041717;28;20049;-71
2022/11/01 00:27:28;;;;;;;109.60;21.77;;;;;;;15.03;86.20;100971.91;5035523;28;20108;-71
2022/11/01 00:29:55;;;;;;;36.92;20.63;;;;;;;14.90;86.04;100965.75;5026368;28;20041;-71
2022/11/01 00:32:21;;;;;;;39.08;21.25;;;;;;;14.96;85.00;100965.34;5025030;28;20064;-71
2022/11/01 00:34:48;;;;;;;31.75;19.88;;;;;;;14.97;85.00;100961.75;5040449;28;20045;-71
2022/11/01 00:37:14;;;;;;;30.33;18.67;;;;;;;14.92;84.14;100951.50;5045378;28;20041;-71
2022/11/01 00:39:42;;;;;;;41.17;21.20;;;;;;;15.04;83.53;100937.47;5044865;28;20057;-71
2022/11/01 00:42:08;;;;;;;50.05;24.55;;;;;;;14.94;84.04;100941.69;5039683;28;20099;-71
2022/11/01 00:44:35;;;;;;;41.03;22.85;;;;;;;14.78;85.75;100940.97;5045913;28;20056;-71
2022/11/01 00:47:01;;;;;;;40.28;21.63;;;;;;;14.63;85.54;100941.16;5045415;28;20053;-71
2022/11/01 00:49:27;;;;;;;35.35;20.98;;;;;;;14.44;85.87;100946.78;5044077;28;20463;-71
2022/11/01 00:51:54;;;;;;;39.63;22.77;;;;;;;14.53;85.89;100952.31;5045832;28;20500;-71
2022/11/01 00:54:20;;;;;;;38.45;21.70;;;;;;;14.59;85.64;100957.22;5044461;28;20041;-71
2022/11/01 00:56:48;;;;;;;34.85;20.20;;;;;;;14.48;84.78;100951.78;5039762;28;20041;-71
2022/11/01 00:59:14;;;;;;;38.22;21.10;;;;;;;14.52;84.55;100950.59;5048108;28;20045;-71
2022/11/01 01:01:41;;;;;;;49.80;24.85;;;;;;;14.38;85.98;100953.28;5048262;28;20053;-71
2022/11/01 01:04:07;;;;;;;41.38;22.02;;;;;;;14.38;85.67;100958.56;5049450;28;20056;-71
2022/11/01 01:06:34;;;;;;;162.30;23.60;;;;;;;14.24;85.47;100957.72;5049100;28;20054;-71
2022/11/01 01:09:01;;;;;;;40.90;20.77;;;;;;;14.44;84.71;100963.47;5047311;28;20049;-71
2022/11/01 01:11:27;;;;;;;34.72;20.77;;;;;;;14.25;84.07;100962.91;5048407;28;20389;-71
2022/11/01 01:13:55;;;;;;;43.08;21.67;;;;;;;14.36;84.07;100955.19;5048213;28;20049;-71
2022/11/01 01:16:22;;;;;;;40.65;22.55;;;;;;;13.89;86.04;100954.66;5047381;28;20045;-71
2022/11/01 01:18:49;;;;;;;42.50;21.27;;;;;;;13.71;86.04;100974.25;5048255;28;20099;-71
2022/11/01 01:21:16;;;;;;;48.03;23.65;;;;;;;13.70;87.83;100975.19;5048087;28;20060;-71
2022/11/01 01:23:43;;;;;;;43.83;22.17;;;;;;;14.02;86.32;100959.06;5049208;28;20102;-71
2022/11/01 01:26:10;;;;;;;42.88;22.23;;;;;;;14.06;85.23;100947.41;5048169;28;20133;-71
2022/11/01 01:28:38;;;;;;;311.30;26.48;;;;;;;14.19;84.48;100933.44;5048774;28;20045;-71
2022/11/01 01:31:08;;;;;;;38.58;21.77;;;;;;;13.89;84.18;100930.94;5047098;28;20041;-71
2022/11/01 01:33:34;;;;;;;44.55;22.70;;;;;;;13.71;85.56;100940.81;5047266;28;20504;-71
2022/11/01 01:36:01;;;;;;;702.03;42.65;;;;;;;13.74;85.64;100938.00;5049206;28;20048;-71
2022/11/01 01:38:28;;;;;;;207.63;24.20;;;;;;;14.08;83.57;100931.47;5047356;28;20052;-71
2022/11/01 01:41:54;;;;;;;486.63;36.05;;;;;;;13.96;84.50;100935.75;5046802;28;20087;-71
2022/11/01 01:43:42;;;;;;;479.48;33.10;;;;;;;13.56;86.69;100936.50;5047329;28;20485;-71
2022/11/01 01:46:10;;;;;;;42.15;22.02;;;;;;;13.41;87.01;100925.13;5047813;28;20063;-71
2022/11/01 01:48:40;;;;;;;32.22;19.63;;;;;;;13.42;86.51;100912.75;5047959;28;20056;-71
2022/11/01 01:51:11;;;;;;;32.97;19.52;;;;;;;13.40;87.34;100909.38;5046094;28;20047;-71
2022/11/01 01:53:42;;;;;;;483.80;33.03;;;;;;;13.39;86.74;100898.00;5047354;28;20049;-71
2022/11/01 01:56:12;;;;;;;176.75;26.88;;;;;;;13.26;88.04;100897.06;5048454;28;20049;-71
2022/11/01 01:58:42;;;;;;;40.10;19.08;;;;;;;13.00;87.18;100897.72;5028983;28;20063;-71
2022/11/01 02:01:10;;;;;;;193.05;22.90;;;;;;;13.21;85.87;100896.47;5027161;28;20224;-71
2022/11/01 02:03:38;;;;;;;49.85;18.55;;;;;;;12.99;86.92;100893.41;5031425;28;20052;-71
2022/11/01 02:06:09;;;;;;;76.72;20.13;;;;;;;12.55;87.78;100903.88;5048919;28;20044;-71
2022/11/01 02:08:37;;;;;;;33.13;18.63;;;;;;;12.75;88.43;100902.75;5048202;28;20056;-71
2022/11/01 02:11:06;;;;;;;86.53;20.73;;;;;;;12.98;87.01;100886.44;5046146;28;20041;-71
2022/11/01 02:13:33;;;;;;;71.25;19.30;;;;;;;12.81;87.85;100890.06;5047404;28;20200;-71
2022/11/01 02:16:14;;;;;;;93.72;23.50;;;;;;;12.54;89.61;100889.03;5044128;28;20110;-71
2022/11/01 02:18:46;;;;;;;68.97;20.45;;;;;;;12.45;90.33;100879.88;5046137;28;20045;-71
2022/11/01 02:21:31;;;;;;;34.67;20.30;;;;;;;12.73;89.20;100883.53;5047108;28;20047;-71
2022/11/01 02:24:24;;;;;;;32.70;19.98;;;;;;;12.55;88.83;100878.44;5047025;28;20044;-71
2022/11/01 02:27:06;;;;;;;72.22;21.88;;;;;;;12.94;87.33;100890.19;5031389;28;20051;-71
2022/11/01 02:29:50;;;;;;;40.00;22.33;;;;;;;13.00;87.60;100889.84;5048068;28;20040;-71
2022/11/01 02:32:22;;;;;;;38.80;22.13;;;;;;;13.11;88.13;100883.03;5048463;28;20136;-71
2022/11/01 02:34:55;;;;;;;35.72;20.25;;;;;;;13.27;87.71;100879.44;5047518;28;20044;-71
2022/11/01 02:37:26;;;;;;;35.05;20.67;;;;;;;13.27;87.27;100884.72;5046927;28;20444;-71
2022/11/01 02:39:58;;;;;;;328.65;29.27;;;;;;;13.38;86.50;100888.41;5045344;28;20041;-71
2022/11/01 02:42:29;;;;;;;42.83;21.52;;;;;;;13.13;87.96;100896.09;5045652;28;20064;-71
2022/11/01 02:45:00;;;;;;;40.53;21.95;;;;;;;13.30;87.69;100893.31;5046751;28;20049;-71
2022/11/01 02:47:30;;;;;;;96.32;23.95;;;;;;;13.54;87.21;100878.63;5045421;28;20044;-71
2022/11/01 02:50:01;;;;;;;151.00;23.67;;;;;;;13.60;86.00;100870.34;5046123;28;20037;-71
2022/11/01 02:52:30;;;;;;;64.20;23.20;;;;;;;13.48;86.43;100860.56;5046060;28;20596;-71
2022/11/01 02:54:59;;;;;;;183.10;26.40;;;;;;;13.28;88.92;100874.09;5046782;28;20076;-71
2022/11/01 02:57:34;;;;;;;231.50;28.65;;;;;;;13.51;87.24;100854.25;5037617;28;20041;-72
2022/11/01 03:00:04;;;;;;;64.00;24.52;;;;;;;13.01;90.63;100863.41;5030923;28;20051;-72
2022/11/01 03:02:42;;;;;;;143.00;26.98;;;;;;;13.30;89.80;100856.44;5041846;28;20049;-72
2022/11/01 03:05:14;;;;;;;94.75;24.65;;;;;;;13.74;88.32;100831.75;5044339;28;20049;-71
2022/11/01 03:07:44;;;;;;;76.07;24.15;;;;;;;13.84;87.55;100830.22;5044570;28;20048;-71
2022/11/01 03:10:11;;;;;;;79.40;23.65;;;;;;;13.52;89.41;100850.69;5044760;28;20397;-72
2022/11/01 03:12:49;;;;;;;60.90;22.73;;;;;;;13.61;89.64;100863.28;5047611;28;20045;-72
2022/11/01 03:15:21;;;;;;;91.65;22.58;;;;;;;13.84;88.38;100856.56;5047313;28;20408;-71
2022/11/01 03:17:56;;;;;;;346.92;29.92;;;;;;;13.91;87.85;100860.50;5045561;28;20095;-71
2022/11/01 03:20:27;;;;;;;92.32;22.98;;;;;;;13.95;87.67;100856.75;5044124;28;20053;-71
2022/11/01 03:22:56;;;;;;;177.65;22.50;;;;;;;14.03;87.40;100857.09;5047015;28;20049;-71
2022/11/01 03:25:40;;;;;;;70.28;21.73;;;;;;;14.10;87.52;100858.41;5047363;28;20044;-71
2022/11/01 03:28:10;;;;;;;123.78;22.23;;;;;;;14.09;86.93;100867.25;5030406;28;20041;-72
2022/11/01 03:30:41;;;;;;;138.75;22.10;;;;;;;14.12;86.72;100872.31;5034195;28;20497;-72
2022/11/01 03:33:11;;;;;;;105.13;21.48;;;;;;;14.17;86.69;100851.78;5045735;28;20099;-72
2022/11/01 03:35:40;;;;;;;100.13;23.92;;;;;;;13.94;87.20;100855.88;5045885;28;20144;-72
2022/11/01 03:38:10;;;;;;;68.15;23.85;;;;;;;14.02;87.54;100855.41;5043920;28;20041;-72
2022/11/01 03:40:41;;;;;;;97.63;21.48;;;;;;;14.07;87.51;100848.06;5044419;28;20045;-72
2022/11/01 03:43:13;;;;;;;62.05;22.67;;;;;;;13.95;88.43;100848.81;5045979;28;20057;-71
2022/11/01 03:45:41;;;;;;;131.43;23.95;;;;;;;14.14;87.80;100852.84;5045250;28;20143;-71
2022/11/01 03:48:09;;;;;;;248.02;26.88;;;;;;;14.25;87.04;100835.47;5044803;28;20070;-72
2022/11/01 03:50:37;;;;;;;250.38;28.58;;;;;;;14.19;87.54;100831.41;5044295;28;20053;-72
2022/11/01 03:53:03;;;;;;;264.35;26.95;;;;;;;13.95;88.57;100822.47;5044305;28;20057;-71
2022/11/01 03:55:30;;;;;;;226.70;28.38;;;;;;;13.69;90.37;100832.03;5041608;28;20052;-72
2022/11/01 03:57:58;;;;;;;40.90;22.80;;;;;;;13.88;90.31;100837.84;5041355;28;20420;-71
2022/11/01 04:00:28;;;;;;;202.60;28.65;;;;;;;13.51;92.45;100825.28;5045204;28;20048;-71
2022/11/01 04:02:56;;;;;;;116.68;27.70;;;;;;;13.63;93.12;100830.63;5043834;28;20049;-71
2022/11/01 04:05:25;;;;;;;103.70;28.40;;;;;;;13.81;93.45;100830.41;5043085;28;20049;-71
2022/11/01 04:07:52;;;;;;;235.25;34.88;;;;;;;13.86;91.65;100829.16;5045489;28;20052;-71
2022/11/01 04:10:20;;;;;;;247.82;32.53;;;;;;;13.04;97.14;100839.53;5044073;28;20040;-71
2022/11/01 04:12:48;;;;;;;69.70;27.20;;;;;;;12.53;100.00;100842.59;5044630;28;20037;-71
2022/11/01 04:21:01;;;;;;;88.50;32.78;;;;;;;12.09;100.00;100845.16;5037307;28;20099;-71
2022/11/01 04:23:27;;;;;;;227.60;35.70;;;;;;;12.66;100.00;100844.44;5040735;28;20264;-71
2022/11/01 04:25:53;;;;;;;118.47;31.17;;;;;;;12.92;100.00;100828.91;5043339;28;20052;-71
2022/11/01 04:28:20;;;;;;;189.23;34.53;;;;;;;13.26;99.94;100820.69;5046157;28;20041;-71
2022/11/01 04:30:47;;;;;;;189.40;36.22;;;;;;;13.16;98.32;100825.66;5046165;28;20481;-71
2022/11/01 04:33:13;;;;;;;194.13;35.30;;;;;;;12.73;100.00;100838.81;5048914;28;20436;-70
2022/11/01 04:35:40;;;;;;;261.10;38.25;;;;;;;12.32;100.00;100831.56;5048992;28;20051;-70
2022/11/01 04:38:09;;;;;;;152.07;35.05;;;;;;;12.30;100.00;100836.06;5045254;28;20056;-70
2022/11/01 04:40:36;;;;;;;239.57;37.42;;;;;;;12.79;100.00;100835.81;5046645;28;20041;-71
2022/11/01 04:43:02;;;;;;;176.32;39.10;;;;;;;12.68;100.00;100825.94;5049333;28;20045;-71
2022/11/01 04:45:29;;;;;;;186.73;36.20;;;;;;;13.04;100.00;100821.09;5049365;28;20496;-71
2022/11/01 04:48:03;;;;;;;335.02;42.78;;;;;;;12.68;100.00;100820.66;5046225;28;20056;-71
2022/11/01 04:50:30;;;;;;;225.00;36.38;;;;;;;13.11;99.69;100797.94;5048316;28;20416;-71
2022/11/01 04:52:58;;;;;;;197.90;36.10;;;;;;;13.31;98.75;100771.19;5047664;28;20044;-70
2022/11/01 04:55:25;;;;;;;152.77;34.42;;;;;;;13.49;96.98;100770.03;5045622;28;20056;-71
2022/11/01 04:57:52;;;;;;;320.70;43.47;;;;;;;12.94;99.97;100791.00;5046408;28;20055;-70
2022/11/01 05:00:18;;;;;;;146.23;34.67;;;;;;;12.83;100.00;100803.13;5046454;28;20048;-70
2022/11/01 05:02:45;;;;;;;151.43;36.85;;;;;;;12.74;100.00;100806.31;5045912;28;20055;-70
2022/11/01 05:05:12;;;;;;;188.13;36.42;;;;;;;12.64;100.00;100798.09;5046857;28;20052;-70
2022/11/01 05:07:38;;;;;;;109.57;36.65;;;;;;;12.30;100.00;100794.00;5048630;28;20504;-70
2022/11/01 05:10:06;;;;;;;125.00;38.50;;;;;;;12.75;100.00;100794.88;5046915;28;20537;-70
2022/11/01 05:12:35;;;;;;;131.18;35.72;;;;;;;13.37;99.62;100786.66;5047846;28;20053;-71
2022/11/01 05:15:01;;;;;;;139.95;37.25;;;;;;;13.61;97.07;100793.00;5049171;28;20055;-71
2022/11/01 05:17:28;;;;;;;211.50;40.15;;;;;;;13.78;95.95;100781.41;5047554;28;20041;-71
2022/11/01 05:19:54;;;;;;;143.80;38.45;;;;;;;12.88;100.00;100801.06;5047034;28;20045;-70
2022/11/01 05:22:21;;;;;;;147.98;37.70;;;;;;;13.01;100.00;100802.88;5048831;28;20496;-71
2022/11/01 05:24:47;;;;;;;125.65;38.63;;;;;;;12.80;100.00;100830.47;5046339;28;20472;-71
2022/11/01 05:27:13;;;;;;;109.72;36.10;;;;;;;12.30;100.00;100854.47;5044061;28;20509;-71
2022/11/01 05:29:41;;;;;;;93.82;38.72;;;;;;;11.87;100.00;100860.41;5047795;28;20068;-71
2022/11/01 05:32:08;;;;;;;104.72;37.13;;;;;;;11.61;100.00;100840.78;5046996;28;20041;-71
2022/11/01 05:34:34;;;;;;;95.65;38.20;;;;;;;11.53;100.00;100835.94;5047733;28;20048;-71
2022/11/01 05:37:01;;;;;;;102.60;43.35;;;;;;;11.34;100.00;100816.88;5048323;28;20060;-70
2022/11/01 05:39:27;;;;;;;79.20;37.15;;;;;;;11.44;100.00;100794.44;5046861;28;20045;-70
2022/11/01 05:41:53;;;;;;;79.88;37.38;;;;;;;11.34;100.00;100816.88;5047654;28;20049;-71
2022/11/01 05:44:20;;;;;;;71.32;36.75;;;;;;;11.65;100.00;100758.28;5046124;28;20047;-70
2022/11/01 05:46:48;;;;;;;74.00;36.88;;;;;;;11.77;100.00;100780.41;5047855;28;20041;-71
2022/11/01 05:49:15;;;;;;;67.88;36.85;;;;;;;11.98;100.00;100808.09;5048449;28;20060;-70
2022/11/01 05:51:41;;;;;;;69.88;37.63;;;;;;;11.93;100.00;100815.41;5047290;28;20049;-70
2022/11/01 05:54:08;;;;;;;63.60;34.70;;;;;;;12.48;100.00;100785.03;5047524;28;20041;-71
2022/11/01 05:56:34;;;;;;;67.45;35.22;;;;;;;12.06;100.00;100817.25;5047400;28;20049;-70
2022/11/01 05:59:00;;;;;;;59.65;32.85;;;;;;;12.23;100.00;100813.69;5042783;28;20079;-70
2022/11/01 06:01:27;;;;;;;66.18;35.05;;;;;;;12.52;100.00;100802.34;5046910;28;20051;-71
2022/11/01 06:04:00;;;;;;;57.03;32.85;;;;;;;12.47;100.00;100812.25;5047075;28;20331;-70
2022/11/01 06:06:27;;;;;;;60.50;32.92;;;;;;;12.53;100.00;100830.31;5047868;28;20527;-70
2022/11/01 06:08:53;;;;;;;56.10;32.78;;;;;;;12.86;100.00;100829.28;5045641;28;20041;-70
2022/11/01 06:11:20;;;;;;;57.30;32.10;;;;;;;12.93;99.55;100841.13;5046344;28;20056;-70
2022/11/01 06:13:46;;;;;;;55.58;33.17;;;;;;;12.51;100.00;100845.34;5047292;28;20049;-70
2022/11/01 06:16:13;;;;;;;55.45;32.78;;;;;;;12.20;100.00;100837.50;5046932;28;20047;-70
2022/11/01 06:18:40;;;;;;;52.10;31.27;;;;;;;12.14;100.00;100843.97;5047660;28;20049;-70
2022/11/01 06:21:08;;;;;;;57.03;32.63;;;;;;;11.79;100.00;100857.38;5047795;28;20044;-70
2022/11/01 06:23:34;;;;;;;54.55;32.35;;;;;;;11.96;100.00;100862.53;5046359;28;20221;-70
2022/11/01 06:26:01;;;;;;;55.50;33.58;;;;;;;12.24;100.00;100851.31;5047207;28;20047;-70
2022/11/01 06:28:28;;;;;;;64.55;33.30;;;;;;;12.78;100.00;100855.19;5047484;28;20050;-70
2022/11/01 06:30:54;;;;;;;55.03;32.65;;;;;;;12.30;100.00;100857.09;5046302;28;20053;-72
2022/11/01 06:33:21;;;;;;;51.00;31.67;;;;;;;12.51;100.00;100855.00;5046787;28;20049;-72
2022/11/01 06:35:47;;;;;;;50.92;31.92;;;;;;;12.10;100.00;100878.38;5045943;28;20060;-73
2022/11/01 06:38:15;;;;;;;54.97;31.58;;;;;;;11.62;100.00;100888.00;5046204;28;20047;-73
2022/11/01 06:40:41;;;;;;;47.35;30.00;;;;;;;11.37;100.00;100869.22;5034430;28;20519;-73
2022/11/01 06:43:09;;;;;;;50.13;27.65;;;;;;;11.30;100.00;100878.34;5045673;28;20040;-73
2022/11/01 06:45:35;;;;;;;60.88;33.67;;;;;;;11.48;100.00;100877.38;5046850;28;20045;-73
2022/11/01 06:48:02;;;;;;;56.17;33.35;;;;;;;11.60;100.00;100886.38;5047744;28;20451;-73
2022/11/01 06:50:28;;;;;;;55.33;32.83;;;;;;;11.54;100.00;100879.66;5046390;28;20049;-74
2022/11/01 06:52:57;;;;;;;58.72;33.35;;;;;;;11.28;100.00;100888.06;5045653;28;20052;-73
2022/11/01 06:55:25;;;;;;;61.30;35.95;;;;;;;11.61;100.00;100883.66;5047919;28;20102;-74
2022/11/01 06:57:55;;;;;;;56.60;34.40;;;;;;;11.75;100.00;100882.13;5046841;28;20417;-73
2022/11/01 07:00:21;;;;;;;62.10;34.25;;;;;;;11.95;100.00;100881.88;5045009;28;20496;-72
2022/11/01 07:02:48;;;;;;;69.55;35.35;;;;;;;11.80;100.00;100898.47;5045514;28;20045;-71
2022/11/01 07:05:14;;;;;;;63.78;34.67;;;;;;;12.08;100.00;100896.03;5045986;28;20551;-70
2022/11/01 07:07:41;;;;;;;64.95;35.40;;;;;;;12.16;100.00;100885.91;5045062;28;20052;-70
2022/11/01 07:10:08;;;;;;;71.22;36.28;;;;;;;12.23;100.00;100889.94;5045419;28;20091;-70
2022/11/01 07:12:36;;;;;;;58.35;34.30;;;;;;;12.37;100.00;100890.00;5044911;28;20065;-70
2022/11/01 07:15:03;;;;;;;65.97;35.05;;;;;;;12.06;100.00;100898.75;5045186;28;20045;-70
2022/11/01 07:17:29;;;;;;;67.35;34.60;;;;;;;12.40;100.00;100894.22;5045158;28;20130;-70
2022/11/01 07:19:56;;;;;;;70.35;34.67;;;;;;;12.28;100.00;100911.53;5045475;28;20508;-70
2022/11/01 07:22:22;;;;;;;59.80;33.70;;;;;;;12.23;100.00;100903.09;5046446;28;20056;-70
2022/11/01 07:24:48;;;;;;;67.43;35.40;;;;;;;12.49;100.00;100920.03;5046306;28;20049;-71
2022/11/01 07:27:15;;;;;;;56.17;33.35;;;;;;;12.39;100.00;100927.56;5049674;28;20064;-72
2022/11/01 07:29:43;;;;;;;59.10;33.90;;;;;;;12.54;100.00;100920.59;5044431;28;20053;-73
2022/11/01 07:32:10;;;;;;;56.22;31.15;;;;;;;12.71;100.00;100906.47;5052784;28;20051;-73
2022/11/01 07:34:36;;;;;;;56.15;31.88;;;;;;;12.94;100.00;100901.56;5045255;28;20123;-66
2022/11/01 07:37:03;;;;;;;63.20;36.92;;;;;;;12.68;100.00;100910.97;5044230;28;20040;-66
2022/11/01 07:39:29;;;;;;;56.15;34.22;;;;;;;12.64;100.00;100917.34;5044841;28;20057;-66
2022/11/01 07:41:55;;;;;;;62.00;32.40;;;;;;;12.77;100.00;100916.63;5044286;28;20037;-66
2022/11/01 07:44:22;;;;;;;54.63;31.55;;;;;;;13.04;100.00;100904.50;5043162;28;20045;-66
2022/11/01 07:46:50;;;;;;;56.22;32.28;;;;;;;13.19;100.00;100908.91;5050259;28;20044;-66
2022/11/01 07:49:16;;;;;;;50.70;29.63;;;;;;;13.19;100.00;100911.53;5044512;28;20055;-67
2022/11/01 07:51:43;;;;;;;56.10;31.25;;;;;;;13.46;100.00;100914.28;5043469;28;20057;-66
2022/11/01 07:54:11;;;;;;;58.88;30.38;;;;;;;13.38;100.00;100929.69;5043385;28;20045;-66
2022/11/01 07:56:37;;;;;;;51.05;28.50;;;;;;;13.38;100.00;100932.31;5043788;28;20057;-66
2022/11/01 07:59:04;;;;;;;44.05;27.45;;;;;;;13.22;100.00;100935.03;5043970;28;20048;-65
2022/11/01 08:01:30;;;;;;;51.72;28.48;;;;;;;13.26;100.00;100933.94;5044637;28;20512;-66
2022/11/01 08:03:58;;;;;;;55.58;29.92;;;;;;;13.18;100.00;100940.56;5044881;28;20048;-67
2022/11/01 08:06:24;;;;;;;51.85;28.83;;;;;;;13.81;100.00;100920.03;5043921;28;20049;-66
2022/11/01 08:08:51;;;;;;;54.92;27.95;;;;;;;14.22;100.00;100920.91;5045383;28;20520;-66
2022/11/01 08:11:18;;;;;;;48.67;26.52;;;;;;;14.18;100.00;100922.03;5043868;28;20049;-66
2022/11/01 08:13:44;;;;;;;51.15;25.58;;;;;;;14.25;100.00;100919.84;5044363;28;20053;-66
2022/11/01 08:16:16;;;;;;;45.47;25.00;;;;;;;14.35;100.00;100927.13;5045639;28;20568;-65
2022/11/01 08:18:43;;;;;;;40.28;23.13;;;;;;;14.81;100.00;100917.06;5044916;28;20041;-65
2022/11/01 08:21:17;;;;;;;42.83;23.30;;;;;;;15.33;100.00;100911.75;5044655;28;20048;-64
2022/11/01 08:23:44;;;;;;;34.78;22.13;;;;;;;15.35;100.00;100919.53;5044798;28;20056;-64
2022/11/01 08:26:10;;;;;;;37.58;21.40;;;;;;;14.86;100.00;100914.09;5044801;28;20061;-64
2022/11/01 08:28:37;;;;;;;38.15;21.83;;;;;;;15.30;100.00;100905.81;5045655;28;20048;-65
2022/11/01 08:31:05;;;;;;;30.13;19.90;;;;;;;15.52;100.00;100904.25;5045164;28;20037;-64
2022/11/01 08:33:32;;;;;;;28.00;19.25;;;;;;;16.03;98.26;100912.13;5045038;28;20445;-64
2022/11/01 08:35:59;;;;;;;32.70;18.83;;;;;;;15.66;98.82;100913.03;5045813;28;20454;-64
2022/11/01 08:41:22;;;;;;;33.63;17.90;;;;;;;15.47;100.00;100930.13;5038924;28;20548;-67
2022/11/01 08:43:59;;;;;;;27.75;17.20;;;;;;;15.73;99.97;100932.78;5037325;28;20493;-68
2022/11/01 08:46:29;;;;;;;25.02;17.48;;;;;;;15.21;100.00;100948.69;5044294;28;20573;-68
2022/11/01 08:48:58;;;;;;;34.95;17.42;;;;;;;15.10;100.00;100946.78;5035840;28;20497;-65
2022/11/01 08:51:25;;;;;;;30.00;16.92;;;;;;;15.45;100.00;100950.50;5045375;28;20071;-65
2022/11/01 08:54:00;;;;;;;31.70;17.58;;;;;;;15.35;100.00;100949.47;5045496;28;20082;-64
2022/11/01 08:56:27;;;;;;;36.60;17.45;;;;;;;15.44;100.00;100953.28;5042764;28;20041;-65
2022/11/01 08:58:54;;;;;;;29.90;16.60;;;;;;;15.54;100.00;100960.50;5035269;28;20033;-66
2022/11/01 09:01:33;;;;;;;32.17;17.48;;;;;;;15.80;100.00;100956.06;5060005;28;20063;-72
2022/11/01 09:04:00;;;;;;;24.83;15.82;;;;;;;15.56;100.00;100960.38;5042663;28;20043;-66
2022/11/01 09:06:28;;;;;;;28.35;16.70;;;;;;;15.42;100.00;100968.38;5044774;28;20045;-66
2022/11/01 09:08:56;;;;;;;30.77;17.02;;;;;;;15.59;100.00;100963.66;5043578;28;20120;-65
2022/11/01 09:11:24;;;;;;;28.65;17.33;;;;;;;15.75;100.00;100957.31;5043925;28;20049;-65
2022/11/01 09:13:50;;;;;;;31.85;18.38;;;;;;;16.17;100.00;100959.59;5041872;28;20049;-65
2022/11/01 09:16:17;;;;;;;31.77;17.63;;;;;;;16.43;98.08;100961.22;5042786;28;20056;-65
2022/11/01 09:18:44;;;;;;;33.60;16.95;;;;;;;16.64;96.04;100964.13;5045230;28;20505;-65
2022/11/01 09:21:10;;;;;;;32.25;18.02;;;;;;;16.63;94.71;100965.06;5047367;28;20455;-65
2022/11/01 09:23:37;;;;;;;36.13;17.10;;;;;;;16.37;95.38;100960.81;5049447;28;20049;-65
2022/11/01 09:26:07;;;;;;;27.58;15.95;;;;;;;16.00;98.31;100967.88;5049170;28;20049;-65
2022/11/01 09:28:35;;;;;;;31.80;16.38;;;;;;;16.08;99.18;100969.00;5049554;28;20048;-65
2022/11/01 09:31:02;;;;;;;28.95;16.70;;;;;;;16.03;98.58;100970.31;5047554;28;20281;-66
2022/11/01 09:33:29;;;;;;;23.48;15.75;;;;;;;15.95;100.00;100970.00;5047358;28;20080;-65
2022/11/01 09:35:55;;;;;;;42.60;16.55;;;;;;;15.76;100.00;100993.38;5048949;28;20048;-65
2022/11/01 09:38:22;;;;;;;30.27;16.63;;;;;;;15.95;100.00;100996.44;5046739;28;20045;-65
2022/11/01 09:40:58;;;;;;;25.70;16.83;;;;;;;16.02;100.00;101001.19;5046477;28;20455;-66
2022/11/01 09:43:31;;;;;;;27.52;17.02;;;;;;;16.11;99.82;100990.94;5044873;28;20049;-68
2022/11/01 09:45:59;;;;;;;31.02;17.20;;;;;;;16.60;97.14;100990.91;5048658;28;20424;-68
2022/11/01 09:48:29;;;;;;;39.40;17.40;;;;;;;16.84;96.21;100994.44;5047108;28;20051;-68
2022/11/01 09:50:56;;;;;;;28.85;17.83;;;;;;;16.45;98.95;101004.28;5046349;28;20416;-68
2022/11/01 09:53:27;;;;;;;38.20;18.30;;;;;;;16.78;97.71;101003.66;5046239;28;20053;-67
2022/11/01 09:56:04;;;;;;;28.02;16.85;;;;;;;16.45;99.06;101020.16;5047696;28;20049;-66
2022/11/01 09:58:40;;;;;;;30.77;17.33;;;;;;;16.32;100.00;101013.22;5045504;28;20128;-66
2022/11/01 10:01:19;;;;;;;26.60;15.57;;;;;;;16.03;100.00;101013.47;5028421;28;20417;-65
2022/11/01 10:04:03;;;;;;;24.83;15.00;;;;;;;16.03;100.00;101015.28;5028418;28;20056;-65
2022/11/01 10:06:37;;;;;;;29.77;16.23;;;;;;;16.03;100.00;101013.47;5029210;28;20053;-65
2022/11/01 10:09:13;;;;;;;23.40;14.25;;;;;;;16.00;100.00;101004.91;5035364;28;20044;-65
2022/11/01 10:12:00;;;;;;;27.35;15.23;;;;;;;16.31;100.00;101022.09;5041675;28;20045;-65
2022/11/01 10:14:40;;;;;;;24.48;14.85;;;;;;;16.65;100.00;101029.34;5045320;28;20519;-65
2022/11/01 10:17:13;;;;;;;23.95;14.15;;;;;;;16.65;100.00;101036.44;5045792;28;20444;-65
2022/11/01 10:19:42;;;;;;;23.75;14.85;;;;;;;17.04;99.40;101030.88;5046559;28;20037;-65
2022/11/01 10:22:15;;;;;;;23.48;14.38;;;;;;;16.90;99.52;101020.47;5046209;28;20045;-65
2022/11/01 10:24:47;;;;;;;25.30;13.00;;;;;;;16.78;100.00;101026.66;5038020;28;20049;-65
2022/11/01 10:27:20;;;;;;;17.92;11.75;;;;;;;16.54;100.00;101024.81;5046418;28;20048;-65
2022/11/01 10:29:56;;;;;;;24.02;12.45;;;;;;;17.11;100.00;101026.81;5044443;28;20378;-65
2022/11/01 10:32:30;;;;;;;20.38;10.93;;;;;;;17.18;99.33;101035.19;5045730;28;20041;-66
2022/11/01 10:35:04;;;;;;;21.17;10.57;;;;;;;17.21;97.71;101027.84;5045098;28;20049;-65
2022/11/01 10:37:37;;;;;;;17.83;10.00;;;;;;;17.16;99.09;101026.47;5046757;28;20057;-66
2022/11/01 10:40:12;;;;;;;15.75;9.05;;;;;;;17.06;100.00;101036.94;5046643;28;20501;-66
2022/11/01 10:42:39;;;;;;;16.92;8.98;;;;;;;16.84;100.00;101042.97;5046292;28;20126;-66
2022/11/01 10:45:10;;;;;;;16.48;9.52;;;;;;;17.16;100.00;101043.22;5046341;28;20040;-66
2022/11/01 10:47:36;;;;;;;19.08;8.57;;;;;;;17.67;98.45;101034.97;5045876;28;20044;-66
2022/11/01 10:50:09;;;;;;;17.38;8.10;;;;;;;17.31;98.14;101031.50;5045857;28;20055;-66
2022/11/01 10:52:42;;;;;;;;;;;;;;;17.75;98.36;101029.94;5048315;28;20452;-67
2022/11/01 10:55:14;;;;;;;15.93;8.50;;;;;;;18.40;95.77;101024.81;5044728;28;20395;-67
2022/11/01 10:57:44;;;;;;;14.00;8.70;;;;;;;18.01;96.87;101028.78;5045622;28;20072;-67
2022/11/01 11:00:17;;;;;;;13.45;7.28;;;;;;;18.04;96.06;101031.19;5043297;28;20045;-67
2022/11/01 11:02:48;;;;;;;12.80;7.60;;;;;;;18.17;96.07;101036.38;5044470;28;20049;-66
2022/11/01 11:05:17;;;;;;;11.88;7.22;;;;;;;18.70;93.74;101029.50;5047469;28;20045;-67
2022/11/01 11:07:44;;;;;;;11.07;7.03;;;;;;;18.65;92.00;101036.97;5050712;28;20531;-67
2022/11/01 11:10:18;;;;;;;17.17;6.60;;;;;;;19.39;89.77;101036.97;5046343;28;20532;-67
2022/11/01 11:12:46;;;;;;;12.73;6.18;;;;;;;19.65;88.27;101028.66;5045336;28;20041;-67
2022/11/01 11:15:21;;;;;;;13.52;6.65;;;;;;;19.18;89.82;101030.78;5046697;28;20051;-67
2022/11/01 11:17:54;;;;;;;9.60;6.28;;;;;;;19.11;89.94;101018.97;5045215;28;20048;-67
2022/11/01 11:20:24;;;;;;;11.98;5.60;;;;;;;19.33;89.27;101023.31;5045140;28;20119;-67